createdAt,value
2019-05-28T00:01:39.607Z,13.00
2019-05-28T00:04:27.994Z,12.90
2019-05-28T00:07:16.171Z,12.80
2019-05-28T00:10:05.589Z,12.80
2019-05-28T00:12:54.089Z,12.80
2019-05-28T00:15:42.550Z,12.80
2019-05-28T00:18:30.337Z,12.80
2019-05-28T00:21:18.871Z,12.70
2019-05-28T00:24:06.929Z,12.60
2019-05-28T00:26:54.979Z,12.60
2019-05-28T00:29:43.240Z,12.60
2019-05-28T00:32:31.558Z,12.70
2019-05-28T00:35:20.299Z,12.70
2019-05-28T00:38:08.884Z,12.70
2019-05-28T00:40:56.982Z,12.70
2019-05-28T00:43:45.152Z,12.80
2019-05-28T00:46:32.887Z,12.90
2019-05-28T00:49:21.352Z,12.90
2019-05-28T00:52:08.934Z,12.90
2019-05-28T00:54:56.916Z,12.90
2019-05-28T00:57:47.693Z,12.90
2019-05-28T01:00:54.429Z,13.00
2019-05-28T01:03:42.903Z,13.00
2019-05-28T01:06:30.718Z,13.10
2019-05-28T01:09:18.931Z,13.10
2019-05-28T01:12:06.688Z,13.10
2019-05-28T01:14:54.863Z,13.00
2019-05-28T01:17:43.534Z,13.00
2019-05-28T01:20:32.138Z,13.00
2019-05-28T01:23:20.127Z,13.00
2019-05-28T01:26:08.623Z,13.00
2019-05-28T01:28:56.823Z,13.10
2019-05-28T01:31:44.991Z,13.20
2019-05-28T01:34:33.251Z,13.20
2019-05-28T01:37:20.938Z,13.20
2019-05-28T01:40:08.958Z,13.20
2019-05-28T01:42:57.259Z,13.10
2019-05-28T01:45:45.142Z,13.10
2019-05-28T01:48:33.488Z,13.10
2019-05-28T01:51:21.937Z,13.10
2019-05-28T01:54:10.137Z,13.10
2019-05-28T01:56:58.031Z,13.10
2019-05-28T01:59:46.409Z,13.10
2019-05-28T02:02:34.336Z,13.10
2019-05-28T02:05:22.699Z,13.20
2019-05-28T02:08:11.351Z,13.10
2019-05-28T02:10:59.664Z,13.10
2019-05-28T02:13:48.348Z,13.00
2019-05-28T02:16:36.010Z,13.00
2019-05-28T02:19:24.531Z,13.10
2019-05-28T02:22:12.442Z,13.00
2019-05-28T02:25:01.007Z,12.90
2019-05-28T02:27:48.574Z,12.90
2019-05-28T02:30:36.952Z,12.90
2019-05-28T02:33:25.464Z,12.90
2019-05-28T02:36:13.171Z,12.90
2019-05-28T02:39:01.212Z,12.90
2019-05-28T02:41:49.885Z,12.90
2019-05-28T02:44:38.465Z,12.90
2019-05-28T02:47:26.482Z,13.00
2019-05-28T02:50:15.927Z,13.10
2019-05-28T02:53:04.067Z,13.00
2019-05-28T02:55:54.190Z,13.00
2019-05-28T02:58:43.559Z,13.00
2019-05-28T03:01:43.560Z,13.10
2019-05-28T03:04:24.627Z,13.00
2019-05-28T03:07:14.427Z,12.90
2019-05-28T03:10:04.218Z,12.80
2019-05-28T03:12:52.704Z,12.90
2019-05-28T03:15:44.370Z,12.90
2019-05-28T03:18:36.396Z,12.90
2019-05-28T03:21:26.526Z,12.90
2019-05-28T03:24:16.739Z,12.90
2019-05-28T03:27:05.693Z,13.00
2019-05-28T03:29:53.826Z,13.00
2019-05-28T03:32:42.010Z,12.90
2019-05-28T03:35:30.364Z,13.00
2019-05-28T03:38:20.414Z,13.00
2019-05-28T03:41:08.867Z,13.00
2019-05-28T03:43:56.720Z,13.00
2019-05-28T03:46:44.620Z,13.00
2019-05-28T03:49:32.931Z,13.00
2019-05-28T03:52:20.735Z,13.10
2019-05-28T03:55:09.259Z,13.00
2019-05-28T03:57:57.519Z,13.00
2019-05-28T04:00:46.061Z,13.00
2019-05-28T04:03:33.813Z,13.00
2019-05-28T04:06:22.383Z,13.10
2019-05-28T04:09:10.711Z,13.10
2019-05-28T04:11:58.942Z,13.10
2019-05-28T04:14:46.910Z,13.00
2019-05-28T04:17:34.851Z,13.00
2019-05-28T04:20:23.547Z,12.90
2019-05-28T04:23:16.085Z,12.90
2019-05-28T04:26:03.858Z,12.90
2019-05-28T04:28:51.941Z,12.90
2019-05-28T04:31:40.365Z,13.00
2019-05-28T04:34:27.980Z,13.10
2019-05-28T04:37:16.141Z,12.90
2019-05-28T04:40:04.812Z,12.80
2019-05-28T04:42:52.282Z,12.90
2019-05-28T04:45:40.842Z,12.80
2019-05-28T04:48:29.388Z,12.70
2019-05-28T04:51:18.231Z,12.60
2019-05-28T04:54:06.706Z,12.60
2019-05-28T04:56:55.037Z,12.50
2019-05-28T04:59:43.139Z,12.50
2019-05-28T05:02:31.423Z,12.40
2019-05-28T05:05:20.122Z,12.40
2019-05-28T05:08:08.767Z,12.50
2019-05-28T05:10:56.891Z,12.50
2019-05-28T05:13:44.938Z,12.40
2019-05-28T05:16:33.498Z,12.50
2019-05-28T05:19:22.264Z,12.60
2019-05-28T05:22:10.798Z,12.60
2019-05-28T05:24:58.653Z,12.70
2019-05-28T05:27:47.150Z,12.70
2019-05-28T05:30:35.262Z,12.90
2019-05-28T05:33:22.719Z,13.00
2019-05-28T05:36:10.334Z,13.10
2019-05-28T05:38:58.575Z,13.10
2019-05-28T05:41:46.324Z,13.10
2019-05-28T05:44:33.931Z,13.20
2019-05-28T05:47:22.129Z,13.10
2019-05-28T05:50:10.887Z,12.90
2019-05-28T05:52:59.125Z,13.10
2019-05-28T05:55:47.727Z,13.10
2019-05-28T05:58:36.372Z,13.20
2019-05-28T06:01:25.031Z,13.30
2019-05-28T06:04:12.974Z,13.20
2019-05-28T06:07:01.411Z,13.20
2019-05-28T06:09:49.719Z,13.30
2019-05-28T06:12:38.027Z,13.30
2019-05-28T06:15:26.291Z,13.40
2019-05-28T06:18:14.979Z,13.50
2019-05-28T06:21:11.981Z,13.60
2019-05-28T06:23:53.285Z,13.60
2019-05-28T06:26:42.448Z,13.70
2019-05-28T06:29:30.829Z,13.80
2019-05-28T06:32:19.553Z,13.80
2019-05-28T06:35:07.898Z,13.80
2019-05-28T06:37:56.403Z,13.90
2019-05-28T06:40:44.691Z,13.90
2019-05-28T06:43:33.599Z,13.80
2019-05-28T06:46:22.547Z,13.80
2019-05-28T06:49:10.906Z,13.70
2019-05-28T06:51:59.199Z,13.90
2019-05-28T06:54:48.050Z,13.90
2019-05-28T06:57:36.650Z,13.90
2019-05-28T07:00:25.288Z,13.90
2019-05-28T07:03:13.927Z,14.00
2019-05-28T07:06:06.902Z,13.90
2019-05-28T07:08:51.955Z,14.00
2019-05-28T07:11:39.718Z,13.90
2019-05-28T07:14:28.230Z,14.00
2019-05-28T07:17:16.180Z,14.00
2019-05-28T07:20:04.767Z,14.20
2019-05-28T07:22:53.443Z,14.40
2019-05-28T07:25:41.281Z,14.80
2019-05-28T07:28:29.322Z,15.20
2019-05-28T07:31:17.764Z,15.30
2019-05-28T07:34:05.948Z,15.50
2019-05-28T07:36:54.561Z,15.70
2019-05-28T07:39:42.723Z,16.10
2019-05-28T07:42:33.074Z,16.60
2019-05-28T07:45:20.579Z,16.80
2019-05-28T07:48:09.159Z,17.10
2019-05-28T07:50:57.353Z,17.60
2019-05-28T07:53:45.427Z,17.60
2019-05-28T07:56:33.572Z,17.00
2019-05-28T07:59:21.620Z,16.70
2019-05-28T08:02:09.788Z,16.90
2019-05-28T08:04:58.093Z,16.90
2019-05-28T08:07:45.739Z,16.90
2019-05-28T08:10:34.026Z,16.90
2019-05-28T08:13:22.089Z,16.90
2019-05-28T08:16:18.303Z,17.60
2019-05-28T08:19:01.100Z,18.10
2019-05-28T08:21:49.774Z,19.10
2019-05-28T08:24:37.424Z,19.20
2019-05-28T08:27:25.802Z,18.80
2019-05-28T08:30:13.469Z,18.50
2019-05-28T08:33:01.772Z,18.60
2019-05-28T08:35:51.741Z,18.60
2019-05-28T08:38:39.881Z,19.60
2019-05-28T08:41:27.621Z,19.50
2019-05-28T08:44:15.939Z,18.90
2019-05-28T08:47:03.939Z,18.60
2019-05-28T08:49:52.539Z,18.00
2019-05-28T08:52:41.218Z,17.50
2019-05-28T08:55:29.491Z,17.40
2019-05-28T08:58:18.292Z,17.00
2019-05-28T09:01:07.071Z,16.70
2019-05-28T09:03:55.407Z,16.20
2019-05-28T09:06:43.907Z,16.00
2019-05-28T09:09:32.400Z,15.80
2019-05-28T09:12:20.074Z,15.70
2019-05-28T09:15:08.728Z,15.60
2019-05-28T09:17:56.935Z,15.50
2019-05-28T09:20:44.700Z,15.70
2019-05-28T09:23:32.449Z,16.00
2019-05-28T09:26:20.731Z,16.40
2019-05-28T09:29:09.346Z,16.70
2019-05-28T09:31:58.039Z,17.00
2019-05-28T09:34:45.565Z,17.20
2019-05-28T09:37:33.776Z,17.90
2019-05-28T09:40:22.345Z,18.40
2019-05-28T09:43:11.516Z,18.70
2019-05-28T09:45:59.868Z,18.30
2019-05-28T09:48:48.267Z,18.00
2019-05-28T09:51:35.970Z,18.00
2019-05-28T09:54:24.267Z,17.90
2019-05-28T09:57:12.548Z,17.70
2019-05-28T10:00:00.980Z,17.30
2019-05-28T10:02:49.521Z,17.10
2019-05-28T10:05:38.136Z,17.00
2019-05-28T10:08:26.287Z,17.00
2019-05-28T10:11:13.867Z,16.90
2019-05-28T10:14:02.292Z,16.80
2019-05-28T10:16:51.156Z,17.10
2019-05-28T10:19:38.902Z,17.70
2019-05-28T10:22:26.942Z,18.00
2019-05-28T10:25:15.263Z,17.60
2019-05-28T10:28:03.892Z,17.30
2019-05-28T10:30:51.556Z,17.10
2019-05-28T10:33:40.100Z,17.20
2019-05-28T10:36:35.863Z,17.20
2019-05-28T10:39:17.399Z,16.60
2019-05-28T10:42:05.647Z,16.40
2019-05-28T10:44:53.803Z,16.40
2019-05-28T10:47:41.999Z,16.50
2019-05-28T10:50:29.735Z,16.50
2019-05-28T10:53:18.411Z,16.40
2019-05-28T10:56:06.067Z,16.10
2019-05-28T10:58:54.458Z,16.10
2019-05-28T11:01:42.867Z,16.20
2019-05-28T11:04:31.468Z,16.00
2019-05-28T11:07:19.337Z,15.70
2019-05-28T11:10:22.972Z,15.60
2019-05-28T11:12:59.570Z,15.60
2019-05-28T11:15:48.034Z,15.60
2019-05-28T11:18:36.128Z,15.60
2019-05-28T11:21:24.276Z,15.60
2019-05-28T11:24:12.486Z,15.50
2019-05-28T11:27:00.707Z,15.40
2019-05-28T11:29:49.445Z,15.40
2019-05-28T11:32:37.945Z,15.30
2019-05-28T11:35:26.485Z,15.30
2019-05-28T11:38:15.008Z,15.00
2019-05-28T11:41:03.587Z,14.70
2019-05-28T11:43:51.919Z,14.50
2019-05-28T11:46:40.858Z,14.30
2019-05-28T11:49:29.180Z,14.30
2019-05-28T11:52:17.842Z,14.30
2019-05-28T11:55:09.830Z,14.30
2019-05-28T11:57:58.091Z,14.10
2019-05-28T12:00:46.855Z,14.10
2019-05-28T12:03:35.289Z,13.90
2019-05-28T12:06:22.932Z,13.80
2019-05-28T12:09:11.055Z,13.60
2019-05-28T12:11:59.127Z,13.30
2019-05-28T12:14:47.635Z,13.20
2019-05-28T12:17:42.690Z,13.20
2019-05-28T12:20:25.510Z,13.30
2019-05-28T12:23:13.701Z,13.50
2019-05-28T12:26:01.744Z,13.50
2019-05-28T12:28:49.961Z,13.50
2019-05-28T12:31:38.410Z,13.70
2019-05-28T12:34:26.719Z,13.70
2019-05-28T12:37:15.079Z,13.70
2019-05-28T12:40:03.301Z,13.70
2019-05-28T12:42:50.857Z,13.70
2019-05-28T12:45:38.729Z,13.90
2019-05-28T12:48:27.036Z,14.20
2019-05-28T12:51:15.362Z,14.60
2019-05-28T12:54:03.099Z,15.20
2019-05-28T12:56:51.131Z,16.00
2019-05-28T12:59:39.991Z,17.20
2019-05-28T13:02:28.430Z,19.40
2019-05-28T13:05:17.793Z,22.10
2019-05-28T13:08:09.000Z,22.40
2019-05-28T13:10:55.776Z,22.70
2019-05-28T13:13:43.860Z,22.40
2019-05-28T13:16:33.293Z,22.10
2019-05-28T13:19:21.967Z,20.80
2019-05-28T13:22:09.774Z,20.60
2019-05-28T13:24:58.436Z,20.70
2019-05-28T13:27:46.821Z,22.60
2019-05-28T13:30:35.426Z,24.10
2019-05-28T13:33:23.654Z,25.60
2019-05-28T13:36:12.264Z,24.20
2019-05-28T13:39:00.075Z,24.50
2019-05-28T13:41:48.248Z,22.60
2019-05-28T13:44:36.364Z,21.10
2019-05-28T13:47:33.585Z,20.80
2019-05-28T13:50:15.739Z,20.40
2019-05-28T13:53:03.744Z,20.40
2019-05-28T13:55:52.049Z,19.70
2019-05-28T13:58:39.941Z,19.10
2019-05-28T14:01:28.266Z,18.40
2019-05-28T14:04:17.032Z,17.90
2019-05-28T14:07:05.011Z,17.50
2019-05-28T14:09:53.174Z,16.80
2019-05-28T14:12:41.790Z,16.50
2019-05-28T14:15:30.305Z,16.10
2019-05-28T14:18:18.291Z,16.00
2019-05-28T14:21:06.524Z,15.80
2019-05-28T14:23:54.175Z,15.50
2019-05-28T14:26:42.700Z,15.40
2019-05-28T14:29:31.374Z,15.50
2019-05-28T14:32:19.965Z,15.30
2019-05-28T14:35:08.223Z,15.30
2019-05-28T14:37:57.092Z,15.30
2019-05-28T14:40:45.428Z,15.20
2019-05-28T14:43:33.507Z,15.20
2019-05-28T14:46:21.940Z,15.20
2019-05-28T14:49:10.295Z,15.10
2019-05-28T14:51:58.539Z,15.00
2019-05-28T14:54:46.431Z,14.80
2019-05-28T14:57:35.356Z,14.80
2019-05-28T15:00:23.859Z,14.60
2019-05-28T15:03:12.331Z,14.60
2019-05-28T15:05:59.988Z,14.50
2019-05-28T15:08:48.292Z,14.40
2019-05-28T15:11:36.856Z,14.40
2019-05-28T15:14:24.956Z,14.30
2019-05-28T15:17:13.452Z,14.20
2019-05-28T15:20:01.027Z,14.10
2019-05-28T15:22:49.466Z,13.90
2019-05-28T15:25:37.760Z,13.70
2019-05-28T15:28:26.530Z,13.50
2019-05-28T15:31:15.015Z,13.30
2019-05-28T15:34:02.899Z,13.10
2019-05-28T15:36:51.488Z,13.00
2019-05-28T15:39:40.855Z,12.90
2019-05-28T15:42:29.204Z,13.00
2019-05-28T15:45:17.356Z,13.00
2019-05-28T15:48:06.165Z,12.60
2019-05-28T15:50:54.415Z,12.50
2019-05-28T15:53:42.211Z,12.60
2019-05-28T15:56:30.793Z,12.70
2019-05-28T15:59:19.228Z,12.50
2019-05-28T16:02:07.481Z,12.40
2019-05-28T16:04:55.299Z,12.50
2019-05-28T16:07:43.777Z,12.60
2019-05-28T16:10:31.371Z,12.70
2019-05-28T16:13:19.591Z,12.80
2019-05-28T16:16:08.565Z,12.90
2019-05-28T16:18:57.084Z,12.90
2019-05-28T16:21:45.400Z,13.10
2019-05-28T16:24:33.962Z,13.20
2019-05-28T16:27:21.835Z,13.20
2019-05-28T16:30:10.976Z,13.30
2019-05-28T16:32:59.524Z,13.20
2019-05-28T16:35:47.834Z,13.30
2019-05-28T16:38:36.022Z,13.40
2019-05-28T16:41:24.216Z,13.50
2019-05-28T16:44:12.429Z,13.50
2019-05-28T16:47:15.208Z,13.50
2019-05-28T16:49:51.459Z,13.50
2019-05-28T16:52:39.480Z,13.60
2019-05-28T16:55:27.804Z,13.70
2019-05-28T16:58:15.791Z,13.60
2019-05-28T17:01:21.165Z,13.70
2019-05-28T17:03:53.872Z,13.70
2019-05-28T17:06:42.400Z,13.80
2019-05-28T17:09:30.246Z,13.80
2019-05-28T17:12:18.700Z,13.90
2019-05-28T17:15:08.037Z,13.90
2019-05-28T17:17:56.311Z,13.90
2019-05-28T17:20:44.842Z,13.80
2019-05-28T17:23:32.748Z,13.80
2019-05-28T17:26:21.301Z,13.70
2019-05-28T17:29:09.937Z,13.60
2019-05-28T17:31:58.674Z,13.50
2019-05-28T17:34:47.175Z,13.40
2019-05-28T17:37:35.748Z,13.40
2019-05-28T17:40:24.219Z,13.30
2019-05-28T17:43:13.299Z,13.30
2019-05-28T17:46:01.394Z,13.30
2019-05-28T17:48:49.390Z,13.30
2019-05-28T17:51:37.628Z,13.40
2019-05-28T17:54:26.167Z,13.30
2019-05-28T17:57:15.023Z,13.40
2019-05-28T18:00:04.006Z,13.30
2019-05-28T18:02:52.115Z,13.30
2019-05-28T18:05:40.407Z,13.30
2019-05-28T18:08:29.562Z,13.30
2019-05-28T18:11:17.379Z,13.20
2019-05-28T18:14:05.516Z,13.10
2019-05-28T18:16:53.967Z,13.00
2019-05-28T18:19:42.167Z,13.00
2019-05-28T18:22:30.512Z,13.10
2019-05-28T18:25:20.493Z,13.10
2019-05-28T18:28:08.074Z,13.00
2019-05-28T18:30:57.409Z,12.90
2019-05-28T18:33:45.877Z,13.00
2019-05-28T18:36:34.469Z,13.00
2019-05-28T18:39:25.487Z,13.00
2019-05-28T18:42:13.323Z,13.00
2019-05-28T18:45:02.352Z,13.00
2019-05-28T18:47:50.478Z,12.80
2019-05-28T18:50:38.612Z,12.70
2019-05-28T18:53:26.850Z,12.70
2019-05-28T18:56:17.917Z,12.70
2019-05-28T18:59:04.945Z,12.60
2019-05-28T19:01:53.280Z,12.60
2019-05-28T19:04:42.560Z,12.60
2019-05-28T19:07:30.539Z,12.60
2019-05-28T19:10:19.055Z,12.50
2019-05-28T19:13:07.619Z,12.30
2019-05-28T19:15:56.107Z,12.40
2019-05-28T19:18:43.870Z,12.20
2019-05-28T19:21:32.215Z,12.20
2019-05-28T19:24:20.486Z,12.20
2019-05-28T19:27:09.218Z,12.20
2019-05-28T19:29:57.692Z,12.10
2019-05-28T19:32:46.031Z,12.10
2019-05-28T19:35:34.601Z,12.10
2019-05-28T19:38:23.073Z,12.10
2019-05-28T19:41:11.406Z,12.10
2019-05-28T19:43:59.789Z,12.00
2019-05-28T19:46:48.481Z,12.00
2019-05-28T19:49:36.700Z,12.00
2019-05-28T19:52:24.920Z,12.00
2019-05-28T19:55:13.600Z,12.00
2019-05-28T19:58:02.172Z,12.00
2019-05-28T20:00:50.479Z,12.10
2019-05-28T20:03:39.280Z,12.10
2019-05-28T20:06:28.112Z,12.10
2019-05-28T20:09:16.471Z,12.10
2019-05-28T20:12:12.051Z,12.00
2019-05-28T20:14:54.965Z,12.00
2019-05-28T20:17:43.727Z,12.00
2019-05-28T20:20:31.623Z,12.00
2019-05-28T20:23:19.479Z,12.00
2019-05-28T20:26:07.683Z,12.10
2019-05-28T20:29:07.958Z,12.10
2019-05-28T20:31:45.927Z,12.20
2019-05-28T20:34:34.268Z,12.20
2019-05-28T20:37:22.736Z,12.20
2019-05-28T20:40:11.762Z,12.20
2019-05-28T20:43:00.593Z,12.20
2019-05-28T20:45:48.631Z,12.20
2019-05-28T20:48:37.380Z,12.20
2019-05-28T20:51:25.698Z,12.10
2019-05-28T20:54:13.749Z,12.10
2019-05-28T20:57:02.219Z,12.20
2019-05-28T20:59:51.456Z,12.10
2019-05-28T21:02:39.058Z,12.10
2019-05-28T21:05:27.518Z,12.10
2019-05-28T21:08:16.303Z,12.00
2019-05-28T21:11:04.599Z,11.90
2019-05-28T21:13:53.080Z,11.80
2019-05-28T21:16:40.919Z,11.80
2019-05-28T21:19:29.491Z,11.70
2019-05-28T21:22:26.701Z,11.60
2019-05-28T21:25:08.432Z,11.60
2019-05-28T21:27:56.794Z,11.40
2019-05-28T21:30:45.751Z,11.40
2019-05-28T21:33:33.979Z,11.30
2019-05-28T21:36:21.877Z,11.30
2019-05-28T21:39:10.883Z,11.20
2019-05-28T21:42:00.620Z,11.10
2019-05-28T21:44:49.471Z,11.10
2019-05-28T21:47:38.245Z,11.10
2019-05-28T21:50:26.359Z,11.00
2019-05-28T21:53:14.408Z,10.80
2019-05-28T21:56:03.500Z,10.80
2019-05-28T21:58:51.771Z,10.70
2019-05-28T22:01:40.738Z,10.70
2019-05-28T22:04:29.328Z,10.50
2019-05-28T22:07:17.763Z,10.40
2019-05-28T22:10:08.484Z,10.30
2019-05-28T22:12:57.818Z,10.30
2019-05-28T22:15:46.689Z,10.30
2019-05-28T22:18:34.557Z,10.20
2019-05-28T22:21:22.091Z,10.20
2019-05-28T22:24:10.398Z,10.10
2019-05-28T22:26:58.465Z,10.10
2019-05-28T22:29:47.449Z,10.00
2019-05-28T22:32:35.383Z,10.00
2019-05-28T22:35:23.862Z,9.90
2019-05-28T22:38:12.116Z,9.90
2019-05-28T22:41:00.384Z,9.80
2019-05-28T22:43:48.817Z,9.70
2019-05-28T22:46:37.343Z,9.70
2019-05-28T22:49:25.928Z,9.70
2019-05-28T22:52:14.423Z,9.70
2019-05-28T22:55:02.506Z,9.70
2019-05-28T22:57:50.055Z,9.80
2019-05-28T23:00:38.487Z,9.80
2019-05-28T23:03:26.800Z,9.70
2019-05-28T23:06:15.123Z,9.70
2019-05-28T23:09:05.657Z,9.70
2019-05-28T23:11:53.868Z,9.70
2019-05-28T23:14:42.370Z,9.70
2019-05-28T23:17:30.531Z,9.70
2019-05-28T23:20:19.347Z,9.60
2019-05-28T23:23:07.410Z,9.50
2019-05-28T23:25:55.628Z,9.50
2019-05-28T23:28:44.031Z,9.40
2019-05-28T23:31:31.651Z,9.30
2019-05-28T23:34:19.554Z,9.30
2019-05-28T23:37:09.154Z,9.30
2019-05-28T23:39:58.555Z,9.20
2019-05-28T23:42:46.848Z,9.20
2019-05-28T23:45:34.860Z,9.20
2019-05-28T23:48:22.597Z,9.20
2019-05-28T23:51:10.534Z,9.10
2019-05-28T23:53:59.391Z,9.10
2019-05-28T23:56:48.201Z,9.00
2019-05-28T23:59:36.058Z,9.00
